Airfield :
LOGIN :

Register | Disclaimer

   EN    FR    IT 

 










Legend :    VFR   Marginal VFR   IFR   Intensive IFR   Very Intensive IFR
Visi :
Ceiling :
>= 8 km
>= 3000ft
5 to 8 km
1000 to 3000 ft
1500m to 5 km
500 to 1000 ft
800 to 1500m
200 to 500 ft
< 800m
< 200 ft
Symbols :   Thunderstorms  Fog  Heavy snow  Heavy precipitations  Wind > 20 kt
SIGMETs :     Misc.  Thunderstorms  Icing  Turbulence  Mountain Waves  Volcanic Ashes







- Airport Elevation : 40 ft
- IATA code : RMI


LIPR - Federico Fellini Int. Rimini

CURRENT METAR :
  • 151620Z 09008KT 8000 FEW015 SCT070 19/16 Q1018

EXPIRED METARs :
  • 151550Z 09008KT 7000 SCT015 BKN070 20/17 Q1018
  • 151520Z 10007KT 7000 FEW010 SCT015 BKN070 20/16 Q1018
  • 151450Z 10005KT 070V130 6000 FEW010 BKN015 19/16 Q1018
  • 151420Z 09005KT 060V130 6000 SCT015 20/16 Q1018
  • 151350Z 07006KT 030V090 6000 SCT015 20/16 Q1018

TAF TAF LIPR
Valid from the 15 at 15:00 until the 16 at 00:00 UTC


151400Z 1515/1524 15010KT 6000 FEW030
TEMPO 1515/1521 SHRA
No reported NOTAMs for that airfield.



MET'MAP, your aeronautical weather chart ! - Copyright ORBIFLY December 2007 - Disclaimer

ORBIFLY MET'MAP TEAM :

Programming & Development : Alexandra Zaïnal
Concept & Development : Baudouin d'Aumeries
Co-Development & Prog : Marc-Olivier Méhu
Technical & hardware support : Manuel Goepfert

Contact : metmap@orbifly.com




SOURCES & CREDITS :

   NOAA